Time;durP1;ratioP1;P1;durP2;ratioP2;P2;SDS_P1;SDS_P2;PMS_P1;PMS_P2;Temp;Humidity;BMP_temperature;BMP_pressure;BME280_temperature;BME280_humidity;BME280_pressure;Samples;Min_cycle;Max_cycle;Signal;HPM_P1;HPM_P2
2024/02/24 00:01:19;;;;;;;13.55;3.35;;;;;;;;;;5060422;28;20036;-41
2024/02/24 00:03:46;;;;;;;18.40;4.40;;;;;;;;;;5067927;28;20035;-40
2024/02/24 00:06:16;;;;;;;15.60;3.50;;;;;;;;;;5051431;28;20040;-40
2024/02/24 00:08:43;;;;;;;18.35;3.90;;;;;;;;;;5053371;28;20518;-39
2024/02/24 00:11:10;;;;;;;14.82;3.70;;;;;;;;;;5066716;28;20624;-41
2024/02/24 00:13:37;;;;;;;19.85;3.72;;;;;;;;;;5051786;28;20029;-38
2024/02/24 00:16:07;;;;;;;11.18;3.45;;;;;;;;;;5055746;28;20474;-41
2024/02/24 00:18:34;;;;;;;14.68;3.50;;;;;;;;;;5056771;28;20031;-41
2024/02/24 00:21:01;;;;;;;12.98;3.53;;;;;;;;;;5062326;28;20033;-41
2024/02/24 00:23:29;;;;;;;13.80;3.60;;;;;;;;;;5055927;28;20056;-40
2024/02/24 00:25:56;;;;;;;18.42;2.97;;;;;;;;;;5056081;28;20052;-39
2024/02/24 00:28:23;;;;;;;17.25;3.65;;;;;;;;;;5056749;28;20040;-41
2024/02/24 00:30:50;;;;;;;21.17;3.88;;;;;;;;;;5053059;28;20032;-40
2024/02/24 00:33:17;;;;;;;17.63;3.63;;;;;;;;;;5067763;28;20033;-40
2024/02/24 00:35:44;;;;;;;16.48;4.13;;;;;;;;;;5057968;28;20393;-41
2024/02/24 00:38:12;;;;;;;17.20;3.67;;;;;;;;;;5062408;28;20028;-41
2024/02/24 00:40:39;;;;;;;16.52;3.60;;;;;;;;;;5070114;28;20072;-39
2024/02/24 00:43:06;;;;;;;15.40;3.60;;;;;;;;;;5053494;28;20025;-40
2024/02/24 00:45:32;;;;;;;16.38;3.70;;;;;;;;;;5058463;28;20177;-41
2024/02/24 00:47:59;;;;;;;13.35;3.33;;;;;;;;;;5061634;28;20051;-40
2024/02/24 00:50:28;;;;;;;18.08;3.40;;;;;;;;;;5053308;28;20483;-41
2024/02/24 00:52:58;;;;;;;12.90;3.42;;;;;;;;;;5052669;28;20479;-40
2024/02/24 00:55:25;;;;;;;14.32;3.40;;;;;;;;;;5053190;28;20060;-41
2024/02/24 00:57:52;;;;;;;15.32;3.38;;;;;;;;;;5057603;28;20024;-38
2024/02/24 01:00:19;;;;;;;11.38;3.05;;;;;;;;;;5055906;28;20037;-40
2024/02/24 01:02:47;;;;;;;20.67;3.63;;;;;;;;;;5062640;28;20028;-39
2024/02/24 01:05:20;;;;;;;15.20;3.60;;;;;;;;;;5055358;28;20025;-40
2024/02/24 01:07:47;;;;;;;12.63;3.08;;;;;;;;;;5051305;28;20033;-40
2024/02/24 01:10:14;;;;;;;15.60;3.88;;;;;;;;;;5062386;28;20039;-42
2024/02/24 01:12:41;;;;;;;13.02;3.45;;;;;;;;;;5050569;28;20025;-40
2024/02/24 01:15:08;;;;;;;21.90;4.35;;;;;;;;;;5060787;28;20040;-40
2024/02/24 01:17:35;;;;;;;24.17;4.00;;;;;;;;;;5060252;28;20478;-39
2024/02/24 01:20:02;;;;;;;21.38;3.88;;;;;;;;;;5042548;28;20036;-39
2024/02/24 01:22:29;;;;;;;18.25;4.45;;;;;;;;;;5060120;28;20024;-37
2024/02/24 01:24:59;;;;;;;12.15;3.70;;;;;;;;;;5067781;28;20394;-39
2024/02/24 01:27:26;;;;;;;16.52;4.10;;;;;;;;;;5063483;28;20037;-40
2024/02/24 01:29:53;;;;;;;16.35;4.13;;;;;;;;;;5055251;28;20041;-39
2024/02/24 01:32:20;;;;;;;11.63;4.07;;;;;;;;;;5073392;28;20021;-40
2024/02/24 01:34:47;;;;;;;24.48;3.80;;;;;;;;;;5061437;28;20036;-41
2024/02/24 01:37:14;;;;;;;13.40;4.05;;;;;;;;;;5062587;28;20028;-41
2024/02/24 01:39:44;;;;;;;12.25;3.92;;;;;;;;;;5062976;28;20059;-40
2024/02/24 01:42:11;;;;;;;19.23;4.10;;;;;;;;;;5054300;28;20092;-37
2024/02/24 01:44:38;;;;;;;18.75;4.40;;;;;;;;;;5063040;28;20090;-40
2024/02/24 01:47:05;;;;;;;12.27;4.55;;;;;;;;;;5073344;28;20107;-39
2024/02/24 01:49:32;;;;;;;14.02;4.78;;;;;;;;;;5073893;28;20029;-40
2024/02/24 01:52:00;;;;;;;17.00;4.63;;;;;;;;;;5055835;28;20478;-39
2024/02/24 01:54:29;;;;;;;16.30;4.85;;;;;;;;;;5045604;28;20029;-40
2024/02/24 01:56:56;;;;;;;13.77;4.20;;;;;;;;;;5065623;28;20029;-40
2024/02/24 01:59:23;;;;;;;15.85;4.95;;;;;;;;;;5049400;28;20029;-41
2024/02/24 02:01:51;;;;;;;11.85;4.45;;;;;;;;;;5065626;28;20032;-40
2024/02/24 02:04:19;;;;;;;13.45;4.35;;;;;;;;;;5070858;28;21563;-41
2024/02/24 02:06:46;;;;;;;14.35;4.57;;;;;;;;;;5073620;28;20077;-41
2024/02/24 02:09:13;;;;;;;14.15;4.78;;;;;;;;;;5073122;28;20036;-41
2024/02/24 02:11:40;;;;;;;14.10;4.85;;;;;;;;;;5073662;28;20032;-39
2024/02/24 02:14:08;;;;;;;16.58;4.53;;;;;;;;;;5073436;28;20107;-40
2024/02/24 02:16:36;;;;;;;13.52;4.55;;;;;;;;;;5073495;28;20041;-40
2024/02/24 02:19:04;;;;;;;18.83;4.53;;;;;;;;;;5071869;28;20040;-41
2024/02/24 02:21:32;;;;;;;16.00;4.35;;;;;;;;;;5067958;28;20033;-41
2024/02/24 02:23:59;;;;;;;14.40;4.10;;;;;;;;;;5066034;28;20032;-40
2024/02/24 02:26:26;;;;;;;18.25;4.53;;;;;;;;;;5065648;28;20386;-41
2024/02/24 02:28:53;;;;;;;11.57;3.75;;;;;;;;;;5063881;28;20509;-41
2024/02/24 02:31:21;;;;;;;20.13;4.45;;;;;;;;;;5056284;28;20032;-41
2024/02/24 02:33:47;;;;;;;19.98;3.80;;;;;;;;;;5055004;28;20036;-41
2024/02/24 02:36:14;;;;;;;13.80;4.20;;;;;;;;;;5065086;28;20079;-39
2024/02/24 02:38:41;;;;;;;14.15;3.60;;;;;;;;;;5072755;28;20573;-40
2024/02/24 02:41:09;;;;;;;11.00;3.80;;;;;;;;;;5072940;28;20035;-40
2024/02/24 02:43:36;;;;;;;11.77;3.55;;;;;;;;;;5062932;28;20025;-42
2024/02/24 02:46:03;;;;;;;15.27;3.75;;;;;;;;;;5066453;28;20060;-41
2024/02/24 02:48:30;;;;;;;11.90;3.95;;;;;;;;;;5065614;28;20079;-41
2024/02/24 02:50:58;;;;;;;14.20;4.07;;;;;;;;;;5070727;28;20040;-40
2024/02/24 02:53:25;;;;;;;16.88;4.30;;;;;;;;;;5072941;28;20025;-41
2024/02/24 02:55:52;;;;;;;16.13;3.90;;;;;;;;;;5072695;28;20032;-38
2024/02/24 02:58:19;;;;;;;14.52;3.90;;;;;;;;;;5066423;28;20098;-40
2024/02/24 03:00:47;;;;;;;14.35;4.00;;;;;;;;;;5071544;28;20028;-37
2024/02/24 03:03:14;;;;;;;13.70;4.38;;;;;;;;;;5061282;28;20037;-40
2024/02/24 03:05:43;;;;;;;10.95;3.42;;;;;;;;;;5053637;28;20032;-41
2024/02/24 03:08:10;;;;;;;11.25;3.53;;;;;;;;;;5052393;28;20068;-41
2024/02/24 03:10:37;;;;;;;10.85;3.65;;;;;;;;;;5065455;28;20029;-41
2024/02/24 03:13:04;;;;;;;17.98;3.80;;;;;;;;;;5063163;28;20467;-39
2024/02/24 03:15:32;;;;;;;11.23;3.35;;;;;;;;;;5067363;28;20032;-42
2024/02/24 03:17:59;;;;;;;15.38;3.40;;;;;;;;;;5034837;28;20040;-40
2024/02/24 03:20:26;;;;;;;12.70;3.30;;;;;;;;;;5052501;28;20040;-40
2024/02/24 03:22:53;;;;;;;14.55;3.33;;;;;;;;;;5058469;28;20028;-40
2024/02/24 03:25:20;;;;;;;7.90;2.90;;;;;;;;;;5071808;28;20040;-40
2024/02/24 03:27:48;;;;;;;9.07;2.78;;;;;;;;;;5067401;28;20044;-39
2024/02/24 03:30:15;;;;;;;13.75;2.65;;;;;;;;;;5063649;28;20028;-41
2024/02/24 03:32:42;;;;;;;13.18;2.78;;;;;;;;;;5071561;28;20044;-40
2024/02/24 03:35:10;;;;;;;7.85;2.30;;;;;;;;;;5058354;28;20119;-41
2024/02/24 03:37:37;;;;;;;8.98;2.60;;;;;;;;;;5071006;28;20043;-38
2024/02/24 03:40:06;;;;;;;15.30;2.63;;;;;;;;;;5071190;28;20048;-39
2024/02/24 03:42:34;;;;;;;7.53;2.28;;;;;;;;;;5071923;28;20115;-40
2024/02/24 03:45:02;;;;;;;8.27;1.98;;;;;;;;;;5056624;28;20033;-39
2024/02/24 03:47:30;;;;;;;9.27;2.28;;;;;;;;;;5064403;28;20040;-40
2024/02/24 03:49:58;;;;;;;8.63;2.45;;;;;;;;;;5037042;28;20032;-41
2024/02/24 03:52:26;;;;;;;8.02;2.53;;;;;;;;;;5065367;28;20032;-39
2024/02/24 03:54:53;;;;;;;7.10;1.88;;;;;;;;;;5069433;28;20029;-40
2024/02/24 03:57:20;;;;;;;6.47;2.10;;;;;;;;;;5063941;28;20199;-39
2024/02/24 03:59:48;;;;;;;6.95;1.92;;;;;;;;;;5058655;28;20510;-41
2024/02/24 04:02:15;;;;;;;10.32;2.10;;;;;;;;;;5043643;28;20823;-39
2024/02/24 04:04:42;;;;;;;6.20;2.03;;;;;;;;;;5064800;28;20060;-40
2024/02/24 04:07:09;;;;;;;10.88;2.20;;;;;;;;;;5070861;28;20032;-40
2024/02/24 04:09:37;;;;;;;9.63;2.05;;;;;;;;;;5060913;28;20025;-40
2024/02/24 04:12:04;;;;;;;6.05;1.85;;;;;;;;;;5060944;28;20036;-38
2024/02/24 04:14:31;;;;;;;30.52;2.45;;;;;;;;;;5058620;28;20032;-41
2024/02/24 04:16:58;;;;;;;8.13;2.08;;;;;;;;;;5070128;28;20033;-34
2024/02/24 04:19:25;;;;;;;6.65;2.05;;;;;;;;;;5084310;28;20028;-39
2024/02/24 04:21:52;;;;;;;9.30;2.10;;;;;;;;;;5077451;28;20037;-40
2024/02/24 04:24:19;;;;;;;10.63;2.03;;;;;;;;;;5064224;28;20111;-42
2024/02/24 04:26:46;;;;;;;9.52;2.60;;;;;;;;;;5066996;28;20535;-40
2024/02/24 04:29:13;;;;;;;9.25;2.22;;;;;;;;;;5064874;28;20040;-37
2024/02/24 04:31:40;;;;;;;14.88;2.28;;;;;;;;;;5061880;28;20027;-39
2024/02/24 04:34:07;;;;;;;8.52;2.40;;;;;;;;;;5060434;28;20021;-35
2024/02/24 04:36:34;;;;;;;11.32;2.03;;;;;;;;;;5089769;28;20038;-35
2024/02/24 04:39:01;;;;;;;11.05;1.70;;;;;;;;;;5091253;28;20127;-38
2024/02/24 04:41:28;;;;;;;12.00;1.75;;;;;;;;;;5091635;28;20480;-36
2024/02/24 04:43:54;;;;;;;12.80;2.17;;;;;;;;;;5091613;28;20032;-36
2024/02/24 04:46:22;;;;;;;10.23;2.58;;;;;;;;;;5091451;28;20032;-36
2024/02/24 04:48:49;;;;;;;13.43;2.20;;;;;;;;;;5072792;28;20451;-38
2024/02/24 04:51:16;;;;;;;15.82;2.40;;;;;;;;;;5091555;28;20446;-36
2024/02/24 04:53:43;;;;;;;8.52;2.08;;;;;;;;;;5091273;28;20424;-39
2024/02/24 04:56:15;;;;;;;10.35;2.47;;;;;;;;;;5091271;28;20509;-40
2024/02/24 04:58:42;;;;;;;10.25;1.95;;;;;;;;;;5091437;28;20065;-37
2024/02/24 05:01:08;;;;;;;14.23;2.70;;;;;;;;;;5091339;28;20082;-37
2024/02/24 05:03:35;;;;;;;11.52;2.30;;;;;;;;;;5069724;28;20382;-40
2024/02/24 05:06:03;;;;;;;10.07;2.22;;;;;;;;;;5070146;28;20036;-39
2024/02/24 05:08:30;;;;;;;8.50;1.98;;;;;;;;;;5071061;28;20109;-39
2024/02/24 05:10:58;;;;;;;7.10;1.90;;;;;;;;;;5070954;28;20028;-40
2024/02/24 05:13:25;;;;;;;8.77;1.90;;;;;;;;;;5071163;28;20029;-40
2024/02/24 05:15:52;;;;;;;8.73;1.70;;;;;;;;;;5071103;28;20028;-38
2024/02/24 05:18:19;;;;;;;11.43;2.00;;;;;;;;;;5071127;28;20028;-39
2024/02/24 05:20:46;;;;;;;10.02;2.17;;;;;;;;;;5071048;28;20478;-39
2024/02/24 05:23:13;;;;;;;8.05;1.77;;;;;;;;;;5070854;28;20028;-38
2024/02/24 05:25:40;;;;;;;9.80;2.00;;;;;;;;;;5070928;28;20032;-41
2024/02/24 05:28:07;;;;;;;8.48;1.75;;;;;;;;;;5070837;28;20040;-40
2024/02/24 05:30:34;;;;;;;9.15;1.63;;;;;;;;;;5070885;28;20028;-37
2024/02/24 05:33:01;;;;;;;8.77;2.45;;;;;;;;;;5070927;28;20021;-38
2024/02/24 05:35:28;;;;;;;7.60;2.03;;;;;;;;;;5070890;28;20035;-39
2024/02/24 05:37:56;;;;;;;6.45;1.90;;;;;;;;;;5070584;28;20060;-39
2024/02/24 05:40:23;;;;;;;8.50;1.90;;;;;;;;;;5070754;28;20068;-40
2024/02/24 05:42:51;;;;;;;9.52;2.03;;;;;;;;;;5070870;28;20031;-35
2024/02/24 05:45:18;;;;;;;5.28;2.08;;;;;;;;;;5070556;28;20032;-39
2024/02/24 05:47:45;;;;;;;10.20;1.67;;;;;;;;;;5070669;28;20056;-38
2024/02/24 05:50:12;;;;;;;6.25;2.20;;;;;;;;;;5070913;28;20503;-39
2024/02/24 05:52:39;;;;;;;8.57;2.35;;;;;;;;;;5070903;28;20032;-38
2024/02/24 05:55:09;;;;;;;8.25;2.45;;;;;;;;;;5070866;28;20033;-40
2024/02/24 05:57:36;;;;;;;8.20;1.77;;;;;;;;;;5070673;28;20033;-40
2024/02/24 06:00:10;;;;;;;8.80;2.42;;;;;;;;;;5070784;28;20048;-40
2024/02/24 06:02:38;;;;;;;6.43;2.00;;;;;;;;;;5056003;28;20059;-39
2024/02/24 06:05:05;;;;;;;8.88;2.10;;;;;;;;;;5054106;28;20112;-39
2024/02/24 06:07:33;;;;;;;8.93;2.42;;;;;;;;;;5054129;28;20033;-39
2024/02/24 06:10:00;;;;;;;8.60;2.25;;;;;;;;;;5054054;28;20064;-38
2024/02/24 06:12:27;;;;;;;7.43;1.88;;;;;;;;;;5054272;28;20029;-39
2024/02/24 06:14:54;;;;;;;9.95;2.33;;;;;;;;;;5054028;28;20029;-37
2024/02/24 06:17:21;;;;;;;8.25;2.42;;;;;;;;;;5053935;28;20734;-39
2024/02/24 06:19:48;;;;;;;8.05;2.30;;;;;;;;;;5053887;28;20116;-37
2024/02/24 06:22:15;;;;;;;8.93;2.70;;;;;;;;;;5054011;28;20025;-35
2024/02/24 06:24:42;;;;;;;8.88;2.95;;;;;;;;;;5053840;28;20056;-39
2024/02/24 06:27:10;;;;;;;6.68;3.03;;;;;;;;;;5053784;28;20044;-39
2024/02/24 06:29:37;;;;;;;9.27;2.90;;;;;;;;;;5053780;28;20064;-38
2024/02/24 06:32:04;;;;;;;9.60;3.15;;;;;;;;;;5053549;28;20095;-37
2024/02/24 06:34:31;;;;;;;12.85;2.97;;;;;;;;;;5053681;28;20025;-40
2024/02/24 06:36:58;;;;;;;7.28;2.45;;;;;;;;;;5053689;28;20773;-38
2024/02/24 06:39:25;;;;;;;7.45;2.88;;;;;;;;;;5053493;28;20487;-38
2024/02/24 06:41:56;;;;;;;9.98;2.70;;;;;;;;;;5053603;28;20025;-40
2024/02/24 06:44:23;;;;;;;6.10;2.30;;;;;;;;;;5053561;28;20510;-40
2024/02/24 06:46:50;;;;;;;11.25;2.60;;;;;;;;;;5053528;28;20025;-37
2024/02/24 06:49:17;;;;;;;10.55;2.78;;;;;;;;;;5053369;28;20021;-39
2024/02/24 06:51:44;;;;;;;8.55;2.38;;;;;;;;;;5053416;28;20024;-39
2024/02/24 06:54:11;;;;;;;10.48;2.60;;;;;;;;;;5053255;28;20159;-38
2024/02/24 06:56:38;;;;;;;12.57;2.78;;;;;;;;;;5053264;28;20029;-39
2024/02/24 06:59:06;;;;;;;6.60;2.20;;;;;;;;;;5053318;28;20021;-39
2024/02/24 07:01:33;;;;;;;6.70;2.33;;;;;;;;;;5052984;28;20037;-39
2024/02/24 07:04:00;;;;;;;9.07;2.33;;;;;;;;;;5053050;28;20029;-39
2024/02/24 07:06:28;;;;;;;7.70;2.60;;;;;;;;;;5053239;28;20039;-39
2024/02/24 07:08:55;;;;;;;7.93;2.55;;;;;;;;;;5052832;28;20041;-40
2024/02/24 07:11:21;;;;;;;7.63;2.75;;;;;;;;;;5053100;28;20083;-40
2024/02/24 07:13:48;;;;;;;8.75;2.67;;;;;;;;;;5052841;28;20502;-35
2024/02/24 07:16:15;;;;;;;7.78;2.28;;;;;;;;;;5052857;28;20497;-39
2024/02/24 07:18:43;;;;;;;8.80;2.22;;;;;;;;;;5052910;28;20827;-39
2024/02/24 07:21:10;;;;;;;9.80;2.15;;;;;;;;;;5052856;28;20028;-39
2024/02/24 07:23:37;;;;;;;9.68;2.10;;;;;;;;;;5052850;28;20453;-37
2024/02/24 07:26:04;;;;;;;7.20;2.20;;;;;;;;;;5052700;28;20029;-35
2024/02/24 07:28:31;;;;;;;9.95;2.58;;;;;;;;;;5052502;28;20189;-35
2024/02/24 07:30:58;;;;;;;8.02;2.30;;;;;;;;;;5052595;28;20037;-39
2024/02/24 07:33:28;;;;;;;9.82;2.63;;;;;;;;;;5052565;28;20108;-36
2024/02/24 07:35:55;;;;;;;5.25;1.85;;;;;;;;;;5052594;28;20434;-38
2024/02/24 07:38:22;;;;;;;10.98;2.60;;;;;;;;;;5052361;28;20474;-38
2024/02/24 07:40:49;;;;;;;7.63;2.13;;;;;;;;;;5052393;28;20037;-35
2024/02/24 07:43:16;;;;;;;6.63;2.30;;;;;;;;;;5052451;28;20144;-37
2024/02/24 07:45:43;;;;;;;6.38;2.08;;;;;;;;;;5052277;28;20025;-37
2024/02/24 07:48:10;;;;;;;6.43;2.03;;;;;;;;;;5052229;28;20037;-38
2024/02/24 07:50:37;;;;;;;7.85;2.25;;;;;;;;;;5052327;28;20108;-36
2024/02/24 07:53:04;;;;;;;8.25;2.45;;;;;;;;;;5052184;28;20040;-39
2024/02/24 07:55:31;;;;;;;7.05;2.17;;;;;;;;;;5052228;28;20099;-40
2024/02/24 07:57:58;;;;;;;10.90;2.47;;;;;;;;;;5054541;28;20497;-40
2024/02/24 08:00:25;;;;;;;8.63;2.63;;;;;;;;;;5072135;28;20048;-37
2024/02/24 08:02:52;;;;;;;8.98;2.30;;;;;;;;;;5054141;28;20078;-36
2024/02/24 08:05:20;;;;;;;9.20;2.42;;;;;;;;;;5071976;28;20497;-39
2024/02/24 08:07:47;;;;;;;7.15;2.00;;;;;;;;;;5071749;28;20416;-38
2024/02/24 08:10:14;;;;;;;6.72;2.55;;;;;;;;;;5071883;28;20036;-38
2024/02/24 08:12:41;;;;;;;10.23;3.00;;;;;;;;;;5071884;28;20073;-40
2024/02/24 08:15:08;;;;;;;7.90;1.98;;;;;;;;;;5071733;28;20094;-40
2024/02/24 08:17:35;;;;;;;7.75;2.75;;;;;;;;;;5071924;28;20031;-36
2024/02/24 08:20:02;;;;;;;5.85;2.28;;;;;;;;;;5071701;28;20024;-36
2024/02/24 08:22:29;;;;;;;8.27;2.65;;;;;;;;;;5071800;28;20036;-39
2024/02/24 08:24:56;;;;;;;9.35;2.30;;;;;;;;;;5071186;28;20031;-38
2024/02/24 08:27:23;;;;;;;8.32;2.47;;;;;;;;;;5071570;28;20036;-39
2024/02/24 08:29:50;;;;;;;6.47;2.10;;;;;;;;;;5071620;28;20442;-40
2024/02/24 08:32:18;;;;;;;7.28;2.30;;;;;;;;;;5071534;28;20028;-39
2024/02/24 08:34:45;;;;;;;8.10;2.60;;;;;;;;;;5071472;28;20474;-39
2024/02/24 08:37:11;;;;;;;8.30;2.28;;;;;;;;;;5071455;28;20032;-38
2024/02/24 08:39:38;;;;;;;9.23;2.60;;;;;;;;;;5071306;28;20055;-37
2024/02/24 08:42:05;;;;;;;7.78;2.17;;;;;;;;;;5071639;28;20483;-39
2024/02/24 08:44:32;;;;;;;9.32;2.80;;;;;;;;;;5071337;28;20584;-39
2024/02/24 08:46:59;;;;;;;8.80;2.72;;;;;;;;;;5071497;28;20020;-38
2024/02/24 08:49:26;;;;;;;7.55;2.67;;;;;;;;;;5071410;28;20032;-38
2024/02/24 08:51:53;;;;;;;8.98;2.40;;;;;;;;;;5071408;28;20024;-37
2024/02/24 08:54:20;;;;;;;9.07;2.42;;;;;;;;;;5071379;28;20025;-38
2024/02/24 08:56:48;;;;;;;7.65;2.72;;;;;;;;;;5071240;28;20453;-36
2024/02/24 08:59:15;;;;;;;10.23;2.28;;;;;;;;;;5071378;28;20060;-40
2024/02/24 09:01:42;;;;;;;8.18;2.25;;;;;;;;;;5071199;28;20439;-38
2024/02/24 09:04:10;;;;;;;6.45;2.25;;;;;;;;;;5071222;28;20025;-36
2024/02/24 09:06:36;;;;;;;8.02;2.42;;;;;;;;;;5071148;28;20045;-36
2024/02/24 09:09:07;;;;;;;10.38;2.85;;;;;;;;;;5071221;28;20030;-36
2024/02/24 09:11:34;;;;;;;8.88;2.42;;;;;;;;;;5071244;28;20390;-36
2024/02/24 09:14:00;;;;;;;9.60;2.63;;;;;;;;;;5071155;28;20111;-36
2024/02/24 09:16:27;;;;;;;11.88;2.42;;;;;;;;;;5071103;28;20021;-39
2024/02/24 09:18:54;;;;;;;10.00;2.80;;;;;;;;;;5071046;28;20398;-39
2024/02/24 09:21:21;;;;;;;11.07;2.50;;;;;;;;;;5071138;28;20031;-37
2024/02/24 09:23:48;;;;;;;9.02;2.78;;;;;;;;;;5070987;28;20041;-38
2024/02/24 09:26:16;;;;;;;12.60;3.03;;;;;;;;;;5070907;28;20151;-39
2024/02/24 09:28:43;;;;;;;8.90;2.97;;;;;;;;;;5070886;28;20032;-36
2024/02/24 09:31:10;;;;;;;9.40;3.00;;;;;;;;;;5071063;28;20368;-37
2024/02/24 09:33:37;;;;;;;9.15;2.88;;;;;;;;;;5070908;28;20029;-37
2024/02/24 09:36:04;;;;;;;7.75;2.25;;;;;;;;;;5071615;28;20434;-38
2024/02/24 09:38:31;;;;;;;6.45;2.42;;;;;;;;;;5074576;28;20071;-37
2024/02/24 09:40:58;;;;;;;10.93;2.78;;;;;;;;;;5074617;28;20027;-37
2024/02/24 09:43:25;;;;;;;8.43;2.60;;;;;;;;;;5074404;28;20046;-35
2024/02/24 09:45:52;;;;;;;8.20;3.00;;;;;;;;;;5074462;28;20127;-37
2024/02/24 09:48:20;;;;;;;7.25;2.33;;;;;;;;;;5074580;28;20066;-37
2024/02/24 09:50:47;;;;;;;7.18;2.35;;;;;;;;;;5056500;28;20437;-39
2024/02/24 09:53:13;;;;;;;9.88;2.80;;;;;;;;;;5074462;28;20505;-38
2024/02/24 09:55:43;;;;;;;8.57;2.72;;;;;;;;;;5074348;28;20029;-37
2024/02/24 09:58:11;;;;;;;11.02;3.42;;;;;;;;;;5074288;28;20036;-40
2024/02/24 10:00:38;;;;;;;9.82;2.97;;;;;;;;;;5074405;28;20024;-38
2024/02/24 10:03:06;;;;;;;10.95;2.80;;;;;;;;;;5074404;28;20029;-37
2024/02/24 10:05:32;;;;;;;12.10;3.13;;;;;;;;;;5074306;28;20028;-36
2024/02/24 10:08:00;;;;;;;7.35;2.78;;;;;;;;;;5074267;28;20432;-39
2024/02/24 10:10:28;;;;;;;9.82;3.00;;;;;;;;;;5074074;28;20054;-35
2024/02/24 10:12:58;;;;;;;8.07;3.13;;;;;;;;;;5074129;28;20047;-36
2024/02/24 10:15:26;;;;;;;9.57;2.63;;;;;;;;;;5074038;28;20385;-35
2024/02/24 10:17:59;;;;;;;10.88;3.05;;;;;;;;;;5074068;28;20033;-37
2024/02/24 10:20:27;;;;;;;7.43;2.75;;;;;;;;;;5074097;28;20028;-39
2024/02/24 10:22:54;;;;;;;7.30;2.17;;;;;;;;;;5073796;28;20558;-36
2024/02/24 10:25:21;;;;;;;8.07;2.90;;;;;;;;;;5073766;28;20032;-38
2024/02/24 10:27:48;;;;;;;8.32;2.63;;;;;;;;;;5073544;28;20036;-39
2024/02/24 10:30:16;;;;;;;9.40;2.50;;;;;;;;;;5073893;28;20108;-36
2024/02/24 10:32:43;;;;;;;9.05;2.70;;;;;;;;;;5073722;28;20402;-39
2024/02/24 10:35:10;;;;;;;8.93;2.33;;;;;;;;;;5073621;28;20059;-38
2024/02/24 10:37:37;;;;;;;9.20;2.85;;;;;;;;;;5055727;28;20040;-38
2024/02/24 10:40:08;;;;;;;8.90;2.53;;;;;;;;;;5073384;28;20048;-37
2024/02/24 10:42:35;;;;;;;8.65;2.53;;;;;;;;;;5073635;28;20024;-37
2024/02/24 10:45:04;;;;;;;8.65;2.70;;;;;;;;;;5073374;28;20028;-38
2024/02/24 10:47:35;;;;;;;8.48;2.40;;;;;;;;;;5072712;28;20036;-39
2024/02/24 10:50:03;;;;;;;7.95;2.83;;;;;;;;;;5073371;28;20532;-39
2024/02/24 10:52:30;;;;;;;9.15;2.65;;;;;;;;;;5073316;28;20036;-37
2024/02/24 10:54:58;;;;;;;10.52;3.10;;;;;;;;;;5073030;28;20029;-38
2024/02/24 10:57:25;;;;;;;8.35;2.70;;;;;;;;;;5073426;28;20031;-39
2024/02/24 10:59:52;;;;;;;10.73;2.83;;;;;;;;;;5073236;28;20040;-35
2024/02/24 11:02:20;;;;;;;9.65;3.05;;;;;;;;;;5073355;28;20031;-37
2024/02/24 11:04:47;;;;;;;9.60;2.80;;;;;;;;;;5072908;28;20077;-38
2024/02/24 11:07:20;;;;;;;8.13;2.63;;;;;;;;;;5072997;28;20107;-36
2024/02/24 11:09:48;;;;;;;8.88;2.90;;;;;;;;;;5072940;28;20556;-36
2024/02/24 11:12:16;;;;;;;14.20;3.30;;;;;;;;;;5072866;28;20036;-37
2024/02/24 11:14:43;;;;;;;10.93;3.38;;;;;;;;;;5073067;28;20036;-37
2024/02/24 11:17:11;;;;;;;10.05;2.83;;;;;;;;;;5072890;28;20028;-39
2024/02/24 11:19:44;;;;;;;11.90;2.88;;;;;;;;;;5072814;28;20501;-37
2024/02/24 11:22:21;;;;;;;10.40;3.08;;;;;;;;;;5072803;28;20024;-36
2024/02/24 11:25:01;;;;;;;11.70;3.72;;;;;;;;;;5072770;28;20028;-38
2024/02/24 11:27:34;;;;;;;12.35;3.28;;;;;;;;;;5072597;28;20060;-38
2024/02/24 11:30:21;;;;;;;10.82;2.78;;;;;;;;;;5072539;28;20040;-36
2024/02/24 11:32:48;;;;;;;7.70;2.67;;;;;;;;;;5055771;28;20606;-39
2024/02/24 11:35:15;;;;;;;11.20;3.33;;;;;;;;;;5072450;28;20100;-40
2024/02/24 11:37:43;;;;;;;10.45;2.92;;;;;;;;;;5054461;28;20386;-36
2024/02/24 11:40:10;;;;;;;11.52;3.58;;;;;;;;;;5072223;28;20043;-38
2024/02/24 11:42:37;;;;;;;9.82;3.05;;;;;;;;;;5054724;28;20074;-38
2024/02/24 11:45:06;;;;;;;9.63;2.95;;;;;;;;;;5072493;28;20054;-38
2024/02/24 11:47:35;;;;;;;8.02;2.60;;;;;;;;;;5072347;28;20029;-37
2024/02/24 11:50:02;;;;;;;14.40;3.47;;;;;;;;;;5072122;28;20032;-35
2024/02/24 11:52:29;;;;;;;14.73;4.20;;;;;;;;;;5072285;28;20442;-38
2024/02/24 11:54:56;;;;;;;13.35;3.22;;;;;;;;;;5071931;28;20043;-37
2024/02/24 11:57:23;;;;;;;9.45;2.95;;;;;;;;;;5054034;28;20457;-39
2024/02/24 11:59:50;;;;;;;9.90;3.38;;;;;;;;;;5071197;28;20039;-36
2024/02/24 12:02:17;;;;;;;10.57;3.20;;;;;;;;;;5071902;28;20020;-36
2024/02/24 12:04:44;;;;;;;12.20;2.97;;;;;;;;;;5072005;28;20040;-38
2024/02/24 12:07:11;;;;;;;10.48;3.35;;;;;;;;;;5071904;28;20028;-38
2024/02/24 12:09:38;;;;;;;14.38;3.28;;;;;;;;;;5071545;28;20056;-37
2024/02/24 12:12:06;;;;;;;10.90;3.10;;;;;;;;;;5071869;28;20024;-35
2024/02/24 12:14:33;;;;;;;10.02;3.10;;;;;;;;;;5071756;28;20429;-36
2024/02/24 12:17:00;;;;;;;12.30;3.20;;;;;;;;;;5071824;28;20031;-37
2024/02/24 12:19:28;;;;;;;11.93;3.28;;;;;;;;;;5071788;28;20037;-39
2024/02/24 12:21:55;;;;;;;12.30;3.47;;;;;;;;;;5071606;28;20546;-36
2024/02/24 12:24:29;;;;;;;11.20;3.17;;;;;;;;;;5071974;28;20028;-37
2024/02/24 12:27:00;;;;;;;15.07;3.50;;;;;;;;;;5071673;28;20040;-34
2024/02/24 12:29:29;;;;;;;13.90;3.22;;;;;;;;;;5071643;28;20510;-38
2024/02/24 12:31:56;;;;;;;13.95;3.58;;;;;;;;;;5071600;28;20562;-37
2024/02/24 12:34:24;;;;;;;9.85;2.90;;;;;;;;;;5071525;28;20040;-39
2024/02/24 12:36:57;;;;;;;12.98;3.53;;;;;;;;;;5071487;28;20116;-36
2024/02/24 12:39:24;;;;;;;9.25;2.92;;;;;;;;;;5071363;28;20042;-34
2024/02/24 12:41:55;;;;;;;11.88;3.25;;;;;;;;;;5071576;28;20036;-39
2024/02/24 12:44:22;;;;;;;14.20;3.40;;;;;;;;;;5053337;28;20479;-35
2024/02/24 12:46:49;;;;;;;12.25;3.65;;;;;;;;;;5071343;28;20525;-38
2024/02/24 12:49:16;;;;;;;12.05;3.60;;;;;;;;;;5071481;28;20491;-34
2024/02/24 12:51:50;;;;;;;15.30;3.58;;;;;;;;;;5071512;28;20394;-37
2024/02/24 12:54:17;;;;;;;11.52;3.03;;;;;;;;;;5071230;28;20055;-35
2024/02/24 12:56:44;;;;;;;14.18;3.08;;;;;;;;;;5071290;28;20024;-39
2024/02/24 12:59:12;;;;;;;18.00;3.58;;;;;;;;;;5071410;28;20024;-37
2024/02/24 13:01:39;;;;;;;15.10;3.67;;;;;;;;;;5071308;28;20036;-35
2024/02/24 13:04:06;;;;;;;10.88;3.42;;;;;;;;;;5071236;28;20112;-38
2024/02/24 13:06:33;;;;;;;13.80;3.33;;;;;;;;;;5053614;28;20439;-35
2024/02/24 13:09:00;;;;;;;11.77;3.20;;;;;;;;;;5071311;28;20035;-35
2024/02/24 13:11:27;;;;;;;18.05;3.63;;;;;;;;;;5074519;28;20024;-37
2024/02/24 13:13:54;;;;;;;13.40;3.17;;;;;;;;;;5075266;28;20055;-36
2024/02/24 13:16:21;;;;;;;13.18;3.10;;;;;;;;;;5075341;28;20048;-38
2024/02/24 13:18:48;;;;;;;15.20;3.75;;;;;;;;;;5075314;28;20028;-37
2024/02/24 13:21:15;;;;;;;10.60;3.10;;;;;;;;;;5075181;28;20032;-39
2024/02/24 13:23:42;;;;;;;16.05;3.42;;;;;;;;;;5075076;28;20062;-38
2024/02/24 13:26:09;;;;;;;11.50;3.80;;;;;;;;;;5075150;28;20574;-37
2024/02/24 13:28:36;;;;;;;11.10;3.30;;;;;;;;;;5074942;28;20499;-37
2024/02/24 13:31:04;;;;;;;13.52;3.80;;;;;;;;;;5074955;28;20141;-38
2024/02/24 13:33:31;;;;;;;12.18;3.05;;;;;;;;;;5074918;28;20094;-38
2024/02/24 13:35:58;;;;;;;10.65;3.30;;;;;;;;;;5075023;28;20029;-38
2024/02/24 13:38:25;;;;;;;11.82;3.15;;;;;;;;;;5074630;28;20053;-38
2024/02/24 13:40:52;;;;;;;10.18;3.08;;;;;;;;;;5074896;28;20029;-38
2024/02/24 13:43:19;;;;;;;13.15;3.50;;;;;;;;;;5074706;28;20062;-35
2024/02/24 13:45:46;;;;;;;14.13;3.30;;;;;;;;;;5078373;28;20024;-37
2024/02/24 13:48:13;;;;;;;11.57;3.65;;;;;;;;;;5093673;28;20127;-37
2024/02/24 13:50:40;;;;;;;17.58;3.55;;;;;;;;;;5094911;28;20485;-35
2024/02/24 13:53:07;;;;;;;13.27;3.22;;;;;;;;;;5094834;28;20389;-39
2024/02/24 13:55:34;;;;;;;12.02;3.42;;;;;;;;;;5094691;28;20557;-36
2024/02/24 13:58:03;;;;;;;9.77;3.10;;;;;;;;;;5094823;28;20032;-37
2024/02/24 14:00:29;;;;;;;11.52;3.22;;;;;;;;;;5094505;28;20040;-35
2024/02/24 14:02:57;;;;;;;12.18;3.40;;;;;;;;;;5093931;28;20378;-37
2024/02/24 14:05:23;;;;;;;12.07;3.05;;;;;;;;;;5094534;28;20107;-35
2024/02/24 14:07:51;;;;;;;10.63;3.20;;;;;;;;;;5085219;28;20035;-35
2024/02/24 14:10:17;;;;;;;16.75;3.83;;;;;;;;;;5076193;28;20395;-36
2024/02/24 14:12:44;;;;;;;8.43;2.90;;;;;;;;;;5081870;28;20024;-36
2024/02/24 14:15:12;;;;;;;11.50;3.58;;;;;;;;;;5054094;28;20025;-38
2024/02/24 14:17:39;;;;;;;13.65;3.25;;;;;;;;;;5053695;28;20041;-37
2024/02/24 14:20:08;;;;;;;10.02;2.90;;;;;;;;;;5054101;28;20116;-36
2024/02/24 14:22:35;;;;;;;13.40;3.45;;;;;;;;;;5058578;28;20121;-37
2024/02/24 14:25:02;;;;;;;12.85;3.83;;;;;;;;;;5063474;28;20501;-38
2024/02/24 14:27:29;;;;;;;15.02;3.92;;;;;;;;;;5066747;28;20036;-36
2024/02/24 14:29:56;;;;;;;13.70;3.42;;;;;;;;;;5073660;28;20021;-37
2024/02/24 14:32:23;;;;;;;15.75;3.65;;;;;;;;;;5062052;28;20020;-38
2024/02/24 14:34:51;;;;;;;15.80;3.58;;;;;;;;;;5070490;28;20032;-37
2024/02/24 14:37:18;;;;;;;20.33;3.58;;;;;;;;;;5086089;28;20028;-34